createdAt,value
2018-06-16T00:00:00.677Z,1005.35
2018-06-16T00:01:00.697Z,1005.35
2018-06-16T00:02:00.725Z,1005.31
2018-06-16T00:03:00.755Z,1005.3
2018-06-16T00:04:00.771Z,1005.31
2018-06-16T00:05:00.797Z,1005.35
2018-06-16T00:06:00.819Z,1005.34
2018-06-16T00:07:00.912Z,1005.29
2018-06-16T00:08:00.867Z,1005.29
2018-06-16T00:09:00.896Z,1005.29
2018-06-16T00:10:00.919Z,1005.29
2018-06-16T00:11:00.937Z,1005.25
2018-06-16T00:12:00.973Z,1005.26
2018-06-16T00:13:00.991Z,1005.29
2018-06-16T00:14:01.022Z,1005.29
2018-06-16T00:15:01.040Z,1005.32
2018-06-16T00:16:01.068Z,1005.31
2018-06-16T00:17:01.089Z,1005.31
2018-06-16T00:18:01.111Z,1005.26
2018-06-16T00:19:01.132Z,1005.29
2018-06-16T00:20:01.169Z,1005.28
2018-06-16T00:21:01.181Z,1005.28
2018-06-16T00:22:01.213Z,1005.27
2018-06-16T00:23:01.227Z,1005.26
2018-06-16T00:24:01.253Z,1005.23
2018-06-16T00:25:01.280Z,1005.26
2018-06-16T00:26:01.298Z,1005.23
2018-06-16T00:27:01.320Z,1005.24
2018-06-16T00:28:01.354Z,1005.25
2018-06-16T00:29:01.370Z,1005.25
2018-06-16T00:30:01.396Z,1005.27
2018-06-16T00:31:01.416Z,1005.23
2018-06-16T00:32:01.445Z,1005.26
2018-06-16T00:33:01.467Z,1005.28
2018-06-16T00:34:01.497Z,1005.27
2018-06-16T00:35:01.520Z,1005.26
2018-06-16T00:36:01.542Z,1005.3
2018-06-16T00:37:01.563Z,1005.24
2018-06-16T00:38:01.589Z,1005.25
2018-06-16T00:39:01.615Z,1005.26
2018-06-16T00:40:01.631Z,1005.24
2018-06-16T00:41:01.658Z,1005.25
2018-06-16T00:42:01.687Z,1005.26
2018-06-16T00:43:01.713Z,1005.24
2018-06-16T00:44:01.727Z,1005.23
2018-06-16T00:45:01.756Z,1005.26
2018-06-16T00:46:01.779Z,1005.25
2018-06-16T00:47:01.805Z,1005.28
2018-06-16T00:48:01.832Z,1005.25
2018-06-16T00:49:01.855Z,1005.27
2018-06-16T00:50:01.870Z,1005.26
2018-06-16T00:51:01.905Z,1005.26
2018-06-16T00:52:01.922Z,1005.28
2018-06-16T00:53:02.010Z,1005.3
2018-06-16T00:54:01.973Z,1005.27
2018-06-16T00:55:01.994Z,1005.25
2018-06-16T00:56:02.015Z,1005.24
2018-06-16T00:57:02.037Z,1005.25
2018-06-16T00:58:02.069Z,1005.28
2018-06-16T00:59:02.088Z,1005.32
2018-06-16T01:00:02.115Z,1005.29
2018-06-16T01:01:02.138Z,1005.3
2018-06-16T01:02:02.157Z,1005.29
2018-06-16T01:03:02.185Z,1005.32
2018-06-16T01:04:02.206Z,1005.33
2018-06-16T01:05:02.235Z,1005.33
2018-06-16T01:06:02.259Z,1005.29
2018-06-16T01:07:02.283Z,1005.27
2018-06-16T01:08:02.309Z,1005.25
2018-06-16T01:09:02.328Z,1005.25
2018-06-16T01:10:02.355Z,1005.24
2018-06-16T01:11:02.376Z,1005.22
2018-06-16T01:12:02.397Z,1005.24
2018-06-16T01:13:02.425Z,1005.21
2018-06-16T01:14:02.446Z,1005.2
2018-06-16T01:15:02.471Z,1005.18
2018-06-16T01:16:02.497Z,1005.19
2018-06-16T01:17:02.518Z,1005.2
2018-06-16T01:18:02.535Z,1005.17
2018-06-16T01:19:02.566Z,1005.19
2018-06-16T01:20:02.590Z,1005.19
2018-06-16T01:21:02.611Z,1005.19
2018-06-16T01:22:02.638Z,1005.19
2018-06-16T01:23:02.658Z,1005.17
2018-06-16T01:24:02.679Z,1005.16
2018-06-16T01:25:02.701Z,1005.18
2018-06-16T01:26:02.734Z,1005.1
2018-06-16T01:27:02.766Z,1005.14
2018-06-16T01:28:02.775Z,1005.15
2018-06-16T01:29:02.798Z,1005.13
2018-06-16T01:30:02.828Z,1005.14
2018-06-16T01:31:02.851Z,1005.17
2018-06-16T01:32:02.876Z,1005.16
2018-06-16T01:33:02.899Z,1005.16
2018-06-16T01:34:02.920Z,1005.15
2018-06-16T01:35:02.947Z,1005.1
2018-06-16T01:36:02.968Z,1005.1
2018-06-16T01:37:02.988Z,1005.11
2018-06-16T01:38:03.014Z,1005.11
2018-06-16T01:39:03.042Z,1005.09
2018-06-16T01:40:03.067Z,1005.12
2018-06-16T01:41:03.081Z,1005.12
2018-06-16T01:42:03.114Z,1005.16
2018-06-16T01:43:03.136Z,1005.15
2018-06-16T01:44:03.152Z,1005.14
2018-06-16T01:45:03.181Z,1005.16
2018-06-16T01:46:03.200Z,1005.16
2018-06-16T01:47:03.224Z,1005.12
2018-06-16T01:48:03.250Z,1005.16
2018-06-16T01:49:03.275Z,1005.1
2018-06-16T01:50:03.300Z,1005.1
2018-06-16T01:51:03.316Z,1005.15
2018-06-16T01:52:03.338Z,1005.07
2018-06-16T01:53:03.363Z,1005.13
2018-06-16T01:54:03.389Z,1005.12
2018-06-16T01:55:03.412Z,1005.13
2018-06-16T01:56:03.438Z,1005.15
2018-06-16T01:57:03.463Z,1005.11
2018-06-16T01:58:03.485Z,1005.15
2018-06-16T01:59:03.510Z,1005.13
2018-06-16T02:00:03.532Z,1005.14
2018-06-16T02:01:03.554Z,1005.1
2018-06-16T02:02:03.581Z,1005.08
2018-06-16T02:03:03.598Z,1005.05
2018-06-16T02:04:03.626Z,1005.06
2018-06-16T02:05:03.648Z,1005.05
2018-06-16T02:06:03.671Z,1005.06
2018-06-16T02:07:03.692Z,1005.02
2018-06-16T02:08:03.715Z,1005.03
2018-06-16T02:09:03.742Z,1005.03
2018-06-16T02:10:03.764Z,1005.06
2018-06-16T02:11:03.793Z,1005.02
2018-06-16T02:12:03.809Z,1005.03
2018-06-16T02:13:03.845Z,1005
2018-06-16T02:14:03.856Z,1005
2018-06-16T02:15:03.880Z,1005
2018-06-16T02:16:03.907Z,1005
2018-06-16T02:17:03.929Z,1005.05
2018-06-16T02:18:03.950Z,1005
2018-06-16T02:19:03.973Z,1004.98
2018-06-16T02:20:03.997Z,1005.02
2018-06-16T02:21:04.021Z,1005.01
2018-06-16T02:22:04.049Z,1005
2018-06-16T02:23:04.072Z,1005.04
2018-06-16T02:24:04.095Z,1004.96
2018-06-16T02:25:04.120Z,1005.01
2018-06-16T02:26:04.140Z,1005.03
2018-06-16T02:27:04.167Z,1005.04
2018-06-16T02:28:04.189Z,1005.03
2018-06-16T02:29:04.209Z,1005.04
2018-06-16T02:30:04.284Z,1005
2018-06-16T02:31:04.261Z,1005.02
2018-06-16T02:32:04.286Z,1004.99
2018-06-16T02:33:04.307Z,1004.97
2018-06-16T02:34:04.329Z,1005.01
2018-06-16T02:35:04.349Z,1004.98
2018-06-16T02:36:04.380Z,1004.99
2018-06-16T02:37:04.399Z,1005.01
2018-06-16T02:38:04.420Z,1005.01
2018-06-16T02:39:04.449Z,1005.02
2018-06-16T02:40:04.468Z,1005.04
2018-06-16T02:41:04.496Z,1005.02
2018-06-16T02:42:04.516Z,1005
2018-06-16T02:43:04.542Z,1005.02
2018-06-16T02:44:04.561Z,1005.02
2018-06-16T02:45:04.587Z,1005.05
2018-06-16T02:46:04.612Z,1005.03
2018-06-16T02:47:04.630Z,1005
2018-06-16T02:48:04.659Z,1004.98
2018-06-16T02:49:04.675Z,1004.99
2018-06-16T02:50:04.740Z,1004.99
2018-06-16T02:51:04.722Z,1004.96
2018-06-16T02:52:04.750Z,1004.92
2018-06-16T02:53:04.767Z,1004.97
2018-06-16T02:54:04.792Z,1004.98
2018-06-16T02:55:04.822Z,1004.94
2018-06-16T02:56:04.844Z,1004.94
2018-06-16T02:57:04.869Z,1004.95
2018-06-16T02:58:04.886Z,1004.93
2018-06-16T02:59:04.912Z,1004.9
2018-06-16T03:00:04.935Z,1004.86
2018-06-16T03:01:04.954Z,1004.89
2018-06-16T03:02:04.986Z,1004.92
2018-06-16T03:03:05.007Z,1004.85
2018-06-16T03:04:05.032Z,1004.9
2018-06-16T03:05:05.049Z,1004.87
2018-06-16T03:06:05.079Z,1004.85
2018-06-16T03:07:05.100Z,1004.88
2018-06-16T03:08:05.119Z,1004.89
2018-06-16T03:09:05.142Z,1004.87
2018-06-16T03:10:05.170Z,1004.85
2018-06-16T03:11:05.191Z,1004.88
2018-06-16T03:12:05.209Z,1004.82
2018-06-16T03:13:05.235Z,1004.85
2018-06-16T03:14:05.261Z,1004.88
2018-06-16T03:15:05.324Z,1004.86
2018-06-16T03:16:05.307Z,1004.86
2018-06-16T03:17:05.329Z,1004.9
2018-06-16T03:18:05.351Z,1004.9
2018-06-16T03:19:05.379Z,1004.9
2018-06-16T03:20:05.402Z,1004.88
2018-06-16T03:21:05.426Z,1004.89
2018-06-16T03:22:05.446Z,1004.89
2018-06-16T03:23:05.467Z,1004.9
2018-06-16T03:24:05.489Z,1004.9
2018-06-16T03:25:05.519Z,1004.9
2018-06-16T03:26:05.536Z,1004.89
2018-06-16T03:27:05.563Z,1004.88
2018-06-16T03:28:05.580Z,1004.85
2018-06-16T03:29:05.605Z,1004.89
2018-06-16T03:30:05.640Z,1004.84
2018-06-16T03:31:05.651Z,1004.86
2018-06-16T03:32:05.675Z,1004.83
2018-06-16T03:33:05.695Z,1004.85
2018-06-16T03:34:05.726Z,1004.84
2018-06-16T03:35:05.743Z,1004.88
2018-06-16T03:36:05.771Z,1004.86
2018-06-16T03:37:05.793Z,1004.82
2018-06-16T03:38:05.812Z,1004.83
2018-06-16T03:39:05.848Z,1004.85
2018-06-16T03:40:05.871Z,1004.84
2018-06-16T03:41:05.888Z,1004.83
2018-06-16T03:42:05.903Z,1004.84
2018-06-16T03:43:05.934Z,1004.84
2018-06-16T03:44:05.954Z,1004.86
2018-06-16T03:45:05.977Z,1004.84
2018-06-16T03:46:06.000Z,1004.82
2018-06-16T03:47:06.020Z,1004.87
2018-06-16T03:48:06.043Z,1004.91
2018-06-16T03:49:06.074Z,1004.85
2018-06-16T03:50:06.088Z,1004.85
2018-06-16T03:51:06.112Z,1004.86
2018-06-16T03:52:06.146Z,1004.87
2018-06-16T03:53:06.157Z,1004.85
2018-06-16T03:54:06.187Z,1004.89
2018-06-16T03:55:06.206Z,1004.88
2018-06-16T03:56:06.228Z,1004.87
2018-06-16T03:57:06.259Z,1004.89
2018-06-16T03:58:06.286Z,1004.9
2018-06-16T03:59:06.297Z,1004.85
2018-06-16T04:00:06.318Z,1004.86
2018-06-16T04:01:06.343Z,1004.89
2018-06-16T04:02:06.371Z,1004.88
2018-06-16T04:03:06.390Z,1004.87
2018-06-16T04:04:06.416Z,1004.89
2018-06-16T04:05:06.436Z,1004.88
2018-06-16T04:06:06.458Z,1004.86
2018-06-16T04:07:06.481Z,1004.86
2018-06-16T04:08:06.511Z,1004.87
2018-06-16T04:09:06.530Z,1004.88
2018-06-16T04:10:06.554Z,1004.85
2018-06-16T04:11:06.577Z,1004.85
2018-06-16T04:12:06.600Z,1004.86
2018-06-16T04:13:06.626Z,1004.87
2018-06-16T04:14:06.641Z,1004.86
2018-06-16T04:15:06.671Z,1004.88
2018-06-16T04:16:06.688Z,1004.86
2018-06-16T04:17:06.720Z,1004.89
2018-06-16T04:18:06.736Z,1004.88
2018-06-16T04:19:06.757Z,1004.88
2018-06-16T04:20:06.789Z,1004.88
2018-06-16T04:21:06.811Z,1004.9
2018-06-16T04:22:06.836Z,1004.88
2018-06-16T04:23:06.863Z,1004.92
2018-06-16T04:24:06.943Z,1004.91
2018-06-16T04:25:06.903Z,1004.92
2018-06-16T04:26:06.920Z,1004.88
2018-06-16T04:27:06.950Z,1004.9
2018-06-16T04:28:06.967Z,1004.89
2018-06-16T04:29:06.997Z,1004.88
2018-06-16T04:30:07.012Z,1004.9
2018-06-16T04:31:07.040Z,1004.84
2018-06-16T04:32:07.059Z,1004.88
2018-06-16T04:33:07.083Z,1004.88
2018-06-16T04:34:07.103Z,1004.86
2018-06-16T04:35:07.131Z,1004.83
2018-06-16T04:36:07.152Z,1004.81
2018-06-16T04:37:07.174Z,1004.83
2018-06-16T04:38:07.196Z,1004.87
2018-06-16T04:39:07.219Z,1004.87
2018-06-16T04:40:07.244Z,1004.91
2018-06-16T04:41:07.267Z,1004.9
2018-06-16T04:42:07.287Z,1004.89
2018-06-16T04:43:07.317Z,1004.93
2018-06-16T04:44:07.339Z,1004.93
2018-06-16T04:45:07.364Z,1004.94
2018-06-16T04:46:07.384Z,1004.95
2018-06-16T04:47:07.409Z,1004.93
2018-06-16T04:48:07.432Z,1004.99
2018-06-16T04:49:07.459Z,1004.98
2018-06-16T04:50:07.484Z,1005
2018-06-16T04:51:07.509Z,1004.94
2018-06-16T04:52:07.517Z,1004.95
2018-06-16T04:53:07.543Z,1004.94
2018-06-16T04:54:07.570Z,1004.91
2018-06-16T04:55:07.590Z,1004.93
2018-06-16T04:56:07.610Z,1004.92
2018-06-16T04:57:07.635Z,1004.92
2018-06-16T04:58:07.659Z,1004.95
2018-06-16T04:59:07.677Z,1004.94
2018-06-16T05:00:07.707Z,1004.93
2018-06-16T05:01:07.732Z,1004.94
2018-06-16T05:02:07.757Z,1004.98
2018-06-16T05:03:07.783Z,1004.95
2018-06-16T05:04:07.797Z,1004.92
2018-06-16T05:05:07.816Z,1004.93
2018-06-16T05:06:07.841Z,1004.94
2018-06-16T05:07:07.866Z,1004.91
2018-06-16T05:08:07.891Z,1004.95
2018-06-16T05:09:07.916Z,1004.95
2018-06-16T05:10:07.934Z,1004.94
2018-06-16T05:11:07.961Z,1004.93
2018-06-16T05:12:07.983Z,1004.89
2018-06-16T05:13:08.010Z,1004.94
2018-06-16T05:14:08.034Z,1004.93
2018-06-16T05:15:08.066Z,1004.93
2018-06-16T05:16:08.073Z,1004.93
2018-06-16T05:17:08.102Z,1004.94
2018-06-16T05:18:08.122Z,1004.96
2018-06-16T05:19:08.154Z,1004.96
2018-06-16T05:20:08.171Z,1004.96
2018-06-16T05:21:08.192Z,1004.95
2018-06-16T05:22:08.208Z,1004.92
2018-06-16T05:23:08.237Z,1004.95
2018-06-16T05:24:08.304Z,1004.92
2018-06-16T05:25:08.287Z,1004.9
2018-06-16T05:26:08.303Z,1004.89
2018-06-16T05:27:08.325Z,1004.94
2018-06-16T05:28:08.356Z,1004.9
2018-06-16T05:29:08.375Z,1004.9
2018-06-16T05:30:08.397Z,1004.91
2018-06-16T05:31:08.417Z,1004.9
2018-06-16T05:32:08.445Z,1004.92
2018-06-16T05:33:08.467Z,1004.9
2018-06-16T05:34:08.495Z,1004.94
2018-06-16T05:35:08.518Z,1004.9
2018-06-16T05:36:08.535Z,1004.87
2018-06-16T05:37:08.565Z,1004.87
2018-06-16T05:38:08.584Z,1004.85
2018-06-16T05:39:08.607Z,1004.9
2018-06-16T05:40:08.627Z,1004.89
2018-06-16T05:41:08.650Z,1004.91
2018-06-16T05:42:08.672Z,1004.88
2018-06-16T05:43:08.697Z,1004.94
2018-06-16T05:44:08.728Z,1004.95
2018-06-16T05:45:08.748Z,1004.92
2018-06-16T05:46:08.774Z,1004.95
2018-06-16T05:47:08.792Z,1004.91
2018-06-16T05:48:08.820Z,1004.94
2018-06-16T05:49:08.838Z,1004.91
2018-06-16T05:50:08.865Z,1004.92
2018-06-16T05:51:08.885Z,1004.88
2018-06-16T05:52:08.911Z,1004.86
2018-06-16T05:53:08.972Z,1004.85
2018-06-16T05:54:08.960Z,1004.87
2018-06-16T05:55:08.982Z,1004.85
2018-06-16T05:56:09.000Z,1004.83
2018-06-16T05:57:09.023Z,1004.83
2018-06-16T05:58:09.050Z,1004.86
2018-06-16T05:59:09.077Z,1004.86
2018-06-16T06:00:09.095Z,1004.89
2018-06-16T06:01:09.117Z,1004.85
2018-06-16T06:02:09.140Z,1004.91
2018-06-16T06:03:09.166Z,1004.92
2018-06-16T06:04:09.189Z,1004.94
2018-06-16T06:05:09.225Z,1004.95
2018-06-16T06:06:09.237Z,1004.95
2018-06-16T06:07:09.262Z,1004.95
2018-06-16T06:08:09.283Z,1004.93
2018-06-16T06:09:09.311Z,1004.95
2018-06-16T06:10:09.330Z,1004.94
2018-06-16T06:11:09.355Z,1004.94
2018-06-16T06:12:09.385Z,1004.91
2018-06-16T06:13:09.401Z,1004.98
2018-06-16T06:14:09.422Z,1004.96
2018-06-16T06:15:09.456Z,1004.96
2018-06-16T06:16:09.469Z,1004.93
2018-06-16T06:17:09.496Z,1004.95
2018-06-16T06:18:09.527Z,1004.96
2018-06-16T06:19:09.543Z,1004.94
2018-06-16T06:20:09.574Z,1004.96
2018-06-16T06:21:09.594Z,1004.97
2018-06-16T06:22:09.616Z,1004.97
2018-06-16T06:23:09.633Z,1005
2018-06-16T06:24:09.658Z,1005.03
2018-06-16T06:25:09.682Z,1005.05
2018-06-16T06:26:09.712Z,1005
2018-06-16T06:27:09.730Z,1005
2018-06-16T06:28:09.751Z,1005
2018-06-16T06:29:09.783Z,1004.97
2018-06-16T06:30:09.799Z,1004.98
2018-06-16T06:31:09.825Z,1005
2018-06-16T06:32:10.085Z,1004.94
2018-06-16T06:33:09.874Z,1004.98
2018-06-16T06:34:09.899Z,1005.01
2018-06-16T06:35:09.917Z,1005
2018-06-16T06:36:09.941Z,1005.03
2018-06-16T06:37:10.026Z,1005.04
2018-06-16T06:38:10.005Z,1005.05
2018-06-16T06:39:10.019Z,1005.02
2018-06-16T06:40:10.088Z,1005.07
2018-06-16T06:41:10.069Z,1005.06
2018-06-16T06:42:10.092Z,1005.07
2018-06-16T06:43:10.107Z,1005.08
2018-06-16T06:44:10.144Z,1005.08
2018-06-16T06:45:10.156Z,1005.04
2018-06-16T06:46:10.180Z,1005.08
2018-06-16T06:47:10.212Z,1005.06
2018-06-16T06:48:10.230Z,1005.05
2018-06-16T06:49:10.253Z,1005.05
2018-06-16T06:50:10.286Z,1005.06
2018-06-16T06:51:10.306Z,1005.07
2018-06-16T06:52:10.333Z,1005.05
2018-06-16T06:53:10.352Z,1005.07
2018-06-16T06:54:10.371Z,1005.01
2018-06-16T06:55:10.403Z,1005.03
2018-06-16T06:56:10.422Z,1005.06
2018-06-16T06:57:10.451Z,1005.04
2018-06-16T06:58:10.469Z,1005.03
2018-06-16T06:59:10.491Z,1005.01
2018-06-16T07:00:10.520Z,1005.03
2018-06-16T07:01:10.546Z,1005.04
2018-06-16T07:02:10.567Z,1005.05
2018-06-16T07:03:10.591Z,1005.06
2018-06-16T07:04:10.633Z,1005.08
2018-06-16T07:05:10.638Z,1005.07
2018-06-16T07:06:10.668Z,1005.08
2018-06-16T07:07:10.685Z,1005.05
2018-06-16T07:08:10.712Z,1005.02
2018-06-16T07:09:10.736Z,1005.06
2018-06-16T07:10:10.757Z,1005.05
2018-06-16T07:11:10.784Z,1004.98
2018-06-16T07:12:10.807Z,1004.98
2018-06-16T07:13:10.834Z,1004.98
2018-06-16T07:14:10.859Z,1004.98
2018-06-16T07:15:10.886Z,1004.97
2018-06-16T07:16:10.902Z,1005
2018-06-16T07:17:10.927Z,1004.99
2018-06-16T07:18:10.955Z,1004.97
2018-06-16T07:19:10.983Z,1005.02
2018-06-16T07:20:10.999Z,1005.01
2018-06-16T07:21:11.030Z,1004.98
2018-06-16T07:22:11.054Z,1005
2018-06-16T07:23:11.082Z,1004.95
2018-06-16T07:24:11.105Z,1004.96
2018-06-16T07:25:11.125Z,1004.97
2018-06-16T07:26:11.154Z,1004.96
2018-06-16T07:27:11.226Z,1004.97
2018-06-16T07:28:11.196Z,1005.01
2018-06-16T07:29:11.260Z,1004.96
2018-06-16T07:30:11.252Z,1004.98
2018-06-16T07:31:11.272Z,1004.96
2018-06-16T07:32:11.302Z,1004.98
2018-06-16T07:33:11.320Z,1004.96
2018-06-16T07:34:11.343Z,1004.95
2018-06-16T07:35:11.376Z,1004.95
2018-06-16T07:36:11.440Z,1004.97
2018-06-16T07:37:11.422Z,1004.97
2018-06-16T07:38:11.442Z,1004.97
2018-06-16T07:39:11.483Z,1004.97
2018-06-16T07:40:11.490Z,1004.98
2018-06-16T07:41:11.519Z,1005.02
2018-06-16T07:42:11.539Z,1005
2018-06-16T07:43:11.572Z,1005.01
2018-06-16T07:44:11.594Z,1005.05
2018-06-16T07:45:11.615Z,1005.05
2018-06-16T07:46:11.643Z,1005.03
2018-06-16T07:47:11.670Z,1005.03
2018-06-16T07:48:11.694Z,1005.08
2018-06-16T07:49:11.715Z,1005.09
2018-06-16T07:50:11.753Z,1005.08
2018-06-16T07:51:11.763Z,1005.06
2018-06-16T07:52:11.797Z,1005.07
2018-06-16T07:53:11.815Z,1005.1
2018-06-16T07:54:11.842Z,1005.09
2018-06-16T07:55:11.879Z,1005.1
2018-06-16T07:56:11.890Z,1005.11
2018-06-16T07:57:11.913Z,1005.17
2018-06-16T07:58:11.945Z,1005.11
2018-06-16T07:59:11.966Z,1005.11
2018-06-16T08:00:11.990Z,1005.09
2018-06-16T08:01:12.017Z,1005.08
2018-06-16T08:02:12.046Z,1005.09
2018-06-16T08:03:12.072Z,1005.1
2018-06-16T08:04:12.095Z,1005.07
2018-06-16T08:05:12.115Z,1005.11
2018-06-16T08:06:12.138Z,1005.1
2018-06-16T08:07:12.169Z,1005.1
2018-06-16T08:08:12.191Z,1005.11
2018-06-16T08:09:12.222Z,1005.12
2018-06-16T08:10:12.240Z,1005.15
2018-06-16T08:11:12.267Z,1005.16
2018-06-16T08:12:12.392Z,1005.1
2018-06-16T08:13:12.318Z,1005.1
2018-06-16T08:14:12.350Z,1005.12
2018-06-16T08:15:12.368Z,1005.1
2018-06-16T08:16:12.397Z,1005.1
2018-06-16T08:17:12.427Z,1005.09
2018-06-16T08:18:12.443Z,1005.05
2018-06-16T08:19:12.477Z,1005.02
2018-06-16T08:20:12.502Z,1005.08
2018-06-16T08:21:12.519Z,1005.04
2018-06-16T08:22:12.551Z,1005.07
2018-06-16T08:23:12.578Z,1005.07
2018-06-16T08:24:12.602Z,1005.03
2018-06-16T08:25:12.624Z,1005.06
2018-06-16T08:26:12.647Z,1005.09
2018-06-16T08:27:12.674Z,1005.08
2018-06-16T08:28:12.711Z,1005.06
2018-06-16T08:29:12.730Z,1005.08
2018-06-16T08:30:12.751Z,1005.1
2018-06-16T08:31:12.785Z,1005.1
2018-06-16T08:32:12.810Z,1005.08
2018-06-16T08:33:12.836Z,1005.13
2018-06-16T08:34:12.858Z,1005.12
2018-06-16T08:35:12.887Z,1005.12
2018-06-16T08:36:12.914Z,1005.07
2018-06-16T08:37:12.936Z,1005.08
2018-06-16T08:38:12.965Z,1005.09
2018-06-16T08:39:12.984Z,1005.06
2018-06-16T08:40:13.018Z,1005.08
2018-06-16T08:41:13.041Z,1005.11
2018-06-16T08:42:13.070Z,1005.07
2018-06-16T08:43:13.159Z,1005.1
2018-06-16T08:44:13.121Z,1005.07
2018-06-16T08:45:13.150Z,1005.11
2018-06-16T08:46:13.173Z,1005.1
2018-06-16T08:47:13.200Z,1005.1
2018-06-16T08:48:13.223Z,1005.11
2018-06-16T08:49:13.253Z,1005.11
2018-06-16T08:50:13.280Z,1005.08
2018-06-16T08:51:13.312Z,1005.08
2018-06-16T08:52:13.333Z,1005.08
2018-06-16T08:53:13.360Z,1005.03
2018-06-16T08:54:13.385Z,1005.07
2018-06-16T08:55:13.408Z,1005.05
2018-06-16T08:56:13.435Z,1005.09
2018-06-16T08:57:13.466Z,1005.03
2018-06-16T08:58:13.490Z,1005.03
2018-06-16T08:59:13.518Z,1005.03
2018-06-16T09:00:13.550Z,1005.04
2018-06-16T09:01:13.570Z,1004.99
2018-06-16T09:02:13.596Z,1005.06
2018-06-16T09:03:13.628Z,1005.05
2018-06-16T09:04:13.647Z,1005.02
2018-06-16T09:05:13.682Z,1005.06
2018-06-16T09:06:13.709Z,1005.09
2018-06-16T09:07:13.737Z,1005.09
2018-06-16T09:08:13.761Z,1005.07
2018-06-16T09:09:13.785Z,1005.09
2018-06-16T09:10:13.809Z,1005.05
2018-06-16T09:11:13.837Z,1005.03
2018-06-16T09:12:13.874Z,1005.05
2018-06-16T09:13:13.957Z,1005.05
2018-06-16T09:14:13.918Z,1005.03
2018-06-16T09:15:13.956Z,1005
2018-06-16T09:16:13.980Z,1005.03
2018-06-16T09:17:14.041Z,1005.05
2018-06-16T09:18:14.029Z,1005.01
2018-06-16T09:19:14.063Z,1005.01
2018-06-16T09:20:14.082Z,1004.99
2018-06-16T09:21:14.116Z,1004.97
2018-06-16T09:22:14.143Z,1004.98
2018-06-16T09:23:14.175Z,1004.93
2018-06-16T09:24:14.196Z,1004.98
2018-06-16T09:25:14.220Z,1004.94
2018-06-16T09:26:14.248Z,1004.97
2018-06-16T09:27:14.282Z,1004.95
2018-06-16T09:28:14.301Z,1004.94
2018-06-16T09:29:14.335Z,1004.94
2018-06-16T09:30:14.364Z,1004.94
2018-06-16T09:31:14.393Z,1004.93
2018-06-16T09:32:14.416Z,1004.96
2018-06-16T09:33:14.440Z,1004.98
2018-06-16T09:34:14.471Z,1004.97
2018-06-16T09:35:14.496Z,1004.95
2018-06-16T09:36:14.587Z,1004.93
2018-06-16T09:37:14.559Z,1004.96
2018-06-16T09:38:14.582Z,1004.95
2018-06-16T09:39:14.612Z,1004.97
2018-06-16T09:40:14.642Z,1004.93
2018-06-16T09:41:14.669Z,1004.97
2018-06-16T09:42:14.699Z,1004.96
2018-06-16T09:43:14.730Z,1004.97
2018-06-16T09:44:14.747Z,1004.96
2018-06-16T09:45:14.783Z,1004.99
2018-06-16T09:46:14.815Z,1004.97
2018-06-16T09:47:14.841Z,1004.93
2018-06-16T09:48:14.895Z,1004.95
2018-06-16T09:49:14.896Z,1004.96
2018-06-16T09:50:14.928Z,1004.98
2018-06-16T09:51:14.954Z,1004.96
2018-06-16T09:52:14.980Z,1004.98
2018-06-16T09:53:15.009Z,1004.97
2018-06-16T09:54:15.039Z,1004.98
2018-06-16T09:55:15.062Z,1004.96
2018-06-16T09:56:15.102Z,1004.96
2018-06-16T09:57:15.128Z,1004.92
2018-06-16T09:58:15.149Z,1004.9
2018-06-16T09:59:15.185Z,1004.89
2018-06-16T10:00:15.207Z,1004.91
2018-06-16T10:01:15.237Z,1004.91
2018-06-16T10:02:15.271Z,1004.89
2018-06-16T10:03:15.312Z,1004.9
2018-06-16T10:04:15.321Z,1004.9
2018-06-16T10:05:15.350Z,1004.89
2018-06-16T10:06:15.387Z,1004.85
2018-06-16T10:07:15.409Z,1004.87
2018-06-16T10:08:15.446Z,1004.83
2018-06-16T10:09:15.472Z,1004.85
2018-06-16T10:10:15.497Z,1004.84
2018-06-16T10:11:15.528Z,1004.83
2018-06-16T10:12:15.559Z,1004.84
2018-06-16T10:13:15.592Z,1004.87
2018-06-16T10:14:15.617Z,1004.77
2018-06-16T10:15:15.648Z,1004.72
2018-06-16T10:16:15.671Z,1004.76
2018-06-16T10:17:15.706Z,1004.8
2018-06-16T10:18:15.730Z,1004.8
2018-06-16T10:19:15.765Z,1004.8
2018-06-16T10:20:15.789Z,1004.8
2018-06-16T10:21:15.841Z,1004.73
2018-06-16T10:22:15.851Z,1004.75
2018-06-16T10:23:15.884Z,1004.73
2018-06-16T10:24:15.908Z,1004.71
2018-06-16T10:25:15.940Z,1004.73
2018-06-16T10:26:15.971Z,1004.7
2018-06-16T10:27:16.005Z,1004.72
2018-06-16T10:28:16.027Z,1004.71
2018-06-16T10:29:16.085Z,1004.71
2018-06-16T10:30:16.091Z,1004.74
2018-06-16T10:31:16.121Z,1004.71
2018-06-16T10:32:16.152Z,1004.75
2018-06-16T10:33:16.185Z,1004.79
2018-06-16T10:34:16.213Z,1004.74
2018-06-16T10:35:16.243Z,1004.75
2018-06-16T10:36:16.319Z,1004.74
2018-06-16T10:37:16.297Z,1004.72
2018-06-16T10:38:16.329Z,1004.7
2018-06-16T10:39:16.357Z,1004.72
2018-06-16T10:40:16.388Z,1004.7
2018-06-16T10:41:16.423Z,1004.72
2018-06-16T10:42:16.454Z,1004.71
2018-06-16T10:43:16.488Z,1004.67
2018-06-16T10:44:16.513Z,1004.63
2018-06-16T10:45:16.546Z,1004.63
2018-06-16T10:46:16.575Z,1004.64
2018-06-16T10:47:16.600Z,1004.62
2018-06-16T10:48:16.637Z,1004.62
2018-06-16T10:49:16.660Z,1004.6
2018-06-16T10:50:16.694Z,1004.58
2018-06-16T10:51:16.722Z,1004.61
2018-06-16T10:52:16.752Z,1004.56
2018-06-16T10:53:16.787Z,1004.55
2018-06-16T10:54:16.818Z,1004.53
2018-06-16T10:55:16.857Z,1004.57
2018-06-16T10:56:16.878Z,1004.61
2018-06-16T10:57:16.915Z,1004.54
2018-06-16T10:58:16.945Z,1004.56
2018-06-16T10:59:16.970Z,1004.51
2018-06-16T11:00:17.000Z,1004.5
2018-06-16T11:01:17.033Z,1004.45
2018-06-16T11:02:17.066Z,1004.52
2018-06-16T11:03:17.093Z,1004.54
2018-06-16T11:04:17.123Z,1004.49
2018-06-16T11:05:17.154Z,1004.44
2018-06-16T11:06:17.186Z,1004.54
2018-06-16T11:07:17.218Z,1004.52
2018-06-16T11:08:17.252Z,1004.43
2018-06-16T11:09:17.286Z,1004.4
2018-06-16T11:10:17.316Z,1004.43
2018-06-16T11:11:17.340Z,1004.4
2018-06-16T11:12:17.379Z,1004.4
2018-06-16T11:13:17.404Z,1004.43
2018-06-16T11:14:17.438Z,1004.43
2018-06-16T11:15:17.476Z,1004.4
2018-06-16T11:16:17.508Z,1004.37
2018-06-16T11:17:17.532Z,1004.43
2018-06-16T11:18:17.568Z,1004.41
2018-06-16T11:19:17.599Z,1004.44
2018-06-16T11:20:17.630Z,1004.4
2018-06-16T11:21:17.655Z,1004.42
2018-06-16T11:22:17.705Z,1004.38
2018-06-16T11:23:17.725Z,1004.4
2018-06-16T11:24:17.757Z,1004.38
2018-06-16T11:25:17.788Z,1004.36
2018-06-16T11:26:17.823Z,1004.35
2018-06-16T11:27:17.851Z,1004.35
2018-06-16T11:28:17.887Z,1004.32
2018-06-16T11:29:17.920Z,1004.29
2018-06-16T11:30:17.944Z,1004.31
2018-06-16T11:31:17.984Z,1004.32
2018-06-16T11:32:18.011Z,1004.35
2018-06-16T11:33:18.043Z,1004.32
2018-06-16T11:34:18.080Z,1004.34
2018-06-16T11:35:18.108Z,1004.31
2018-06-16T11:36:18.136Z,1004.3
2018-06-16T11:37:18.170Z,1004.3
2018-06-16T11:38:18.202Z,1004.25
2018-06-16T11:39:18.238Z,1004.27
2018-06-16T11:40:18.277Z,1004.25
2018-06-16T11:41:18.300Z,1004.27
2018-06-16T11:42:18.339Z,1004.23
2018-06-16T11:43:18.367Z,1004.19
2018-06-16T11:44:18.399Z,1004.22
2018-06-16T11:45:18.437Z,1004.18
2018-06-16T11:46:18.463Z,1004.22
2018-06-16T11:47:18.503Z,1004.19
2018-06-16T11:48:18.539Z,1004.16
2018-06-16T11:49:18.565Z,1004.14
2018-06-16T11:50:18.603Z,1004.13
2018-06-16T11:51:18.630Z,1004.19
2018-06-16T11:52:18.669Z,1004.16
2018-06-16T11:53:18.701Z,1004.16
2018-06-16T11:54:18.732Z,1004.16
2018-06-16T11:55:18.766Z,1004.15
2018-06-16T11:56:18.794Z,1004.14
2018-06-16T11:57:18.830Z,1004.12
2018-06-16T11:58:18.863Z,1004.12
2018-06-16T11:59:18.900Z,1004.05
2018-06-16T12:00:18.926Z,1004.06
2018-06-16T12:01:18.974Z,1004.07
2018-06-16T12:02:18.991Z,1004.09
2018-06-16T12:03:19.027Z,1004.06
2018-06-16T12:04:19.065Z,1004.15
2018-06-16T12:05:19.093Z,1004.04
2018-06-16T12:06:19.127Z,1004.04
2018-06-16T12:07:19.165Z,1004.03
2018-06-16T12:08:19.198Z,1004.02
2018-06-16T12:09:19.232Z,1003.97